Fulton, IN (46931)

7:19 AM EDT on August 31, 2015 (GMT -0400)
Leroy's BarnYard | | Change Station
CLOSE
Current Station
Personal Weather Station
Location: Kewanna, IN
Elevation: 758 ft
Nearby Weather Stations
Active Advisory: Dense Fog Advisory

Elev 758 ft 40.99 °N, 86.35 °W | Updated 3 minutes ago

Clear
Clear
65.4 °F
Feels Like 65.4 °F
N
0.0
Wind Variable Wind from NNW
Gusts 0.0 mph

Today
High -- | Low -- °F
--% Chance of Precip.
Yesterday
High -- | Low -- °F
Precip. -- in
7:10 AM 8:19 PM
Waning Gibbous, 96% visible
Pressure 30.07 in
Visibility 4.0 miles
Clouds Clear
Dew Point 61 °F
Humidity 86%
Rainfall in
Snow Depth Not available.
UV 0 out of 12
Pollen 10.40 out of 12
Air Quality Not available.
Flu Activity Not available.
METAR KRCR 311055Z AUTO 00000KT 4SM BR CLR 20/20 A3007 RMK AO2
Pressure 30.07 in
Visibility 4.0 miles
Clouds Clear
Dew Point 61 °F
Humidity 86%
Rainfall in
Snow Depth Not available.
UV 0 out of 12
Pollen 10.40 out of 12
Air Quality Not available.
Flu Activity Not available.
METAR KRCR 311055Z AUTO 00000KT 4SM BR CLR 20/20 A3007 RMK AO2

10-Day Weather Forecast

×

Almanac

Astronomy

Aug. 31, 2015 Rise Set
Actual Time
Civil Twilight
Nautical Twilight
Astronomical Twilight
Moon
Length of Visible Light
Length of Day
Tomorrow will be .
, % of the Moon is Illuminated

Today's Extremes

State Highs State Lows

Community

WunderPhotos

Upload Photos

1,851,217 photos uploaded!

WunderBlogs® & News

Nearby

Air Quality

  Air Quality AQ Index Pollutant
Not available.

Snow Depth

Station Depth Elevation

Earthquake Activity

City Distance Mag. Time & Date
Minimum magnitude displayed is 2.5.

Coastal Water Temperatures

Place Temperature

Stations

Nearby Weather Stations

Station Location Temp. Windchill Dew Point Humidity Wind Precip. Elev Updated Type
                   
Dense Fog Advisory
Statement as of 3:13 AM EDT on August 31, 2015

... Dense fog advisory in effect until 9 am EDT this morning...

The National Weather Service in northern Indiana has issued a
dense fog advisory... which is in effect until 9 am EDT this
morning.

* Hazardous weather... areas of dense fog with visibilities
reduced to a 1/4 mile or less will impact travel early this
morning.

* Impacts... travel will be difficult in areas of dense fog.

Precautionary/preparedness actions...

A dense fog advisory means visibilities will frequently be
reduced to less than one quarter mile. If driving... slow down...
use your headlights... and leave plenty of distance ahead of you.